Browns Valley, California
Current Conditions -  °F | °C
As of 10:58 AM on Thursday 23 Oct 2014 (Local Time) from KBAB Reporting Station
Few Clouds Few Clouds  
Wind Chill: 65°   Ceiling: Unl
Heat Index: 65°   Visibility: 10mi
Dew Point: 51°   Wind: 8mph
Humidity: 60%   Direction: 110°ESE
Pressure: 30.05"   Gusts: NA
Location:  39.24°N, 121.41°W
Report Text: KBAB 231758Z AUTO 11007KT 10SM FEW130 18/11 A3005 RMK AO2 SLP252 T01830105 10183 20139 50007 $
Loading
Personal Weather Stations






























Interactive Weather Map
Tropical Storm Tracking
New forecast layout! Learn more

10-Day Weather Forecast

Advertisements
Track Severe Weather on mobile